createdAt,value
2022-12-17T00:01:54.186Z,140.10
2022-12-17T00:04:40.685Z,129.80
2022-12-17T00:07:27.921Z,122.90
2022-12-17T00:10:14.866Z,129.50
2022-12-17T00:13:01.874Z,108.80
2022-12-17T00:15:52.087Z,120.90
2022-12-17T00:18:39.804Z,134.90
2022-12-17T00:21:29.915Z,124.20
2022-12-17T00:24:16.628Z,119.70
2022-12-17T00:29:55.958Z,112.90
2022-12-17T00:32:43.077Z,101.70
2022-12-17T00:35:31.864Z,107.40
2022-12-17T00:38:18.564Z,117.00
2022-12-17T00:43:57.325Z,103.50
2022-12-17T00:46:44.296Z,106.20
2022-12-17T00:49:31.468Z,105.00
2022-12-17T00:52:18.191Z,102.50
2022-12-17T00:57:51.708Z,82.90
2022-12-17T01:00:38.962Z,94.50
2022-12-17T01:03:28.446Z,89.70
2022-12-17T01:06:15.149Z,67.70
2022-12-17T01:11:48.426Z,92.20
2022-12-17T01:14:35.431Z,83.40
2022-12-17T01:17:22.343Z,82.00
2022-12-17T01:20:09.230Z,74.60
2022-12-17T01:22:56.426Z,91.00
2022-12-17T01:25:43.975Z,88.20
2022-12-17T01:28:30.843Z,84.70
2022-12-17T01:31:17.717Z,82.50
2022-12-17T01:34:05.650Z,80.30
2022-12-17T01:36:52.426Z,77.80
2022-12-17T01:39:39.385Z,84.70
2022-12-17T01:42:33.068Z,88.60
2022-12-17T01:45:21.920Z,85.20
2022-12-17T01:48:16.880Z,71.40
2022-12-17T01:51:08.573Z,83.50
2022-12-17T01:54:00.192Z,77.60
2022-12-17T01:56:47.216Z,82.60
2022-12-17T01:59:34.387Z,81.60
2022-12-17T02:02:22.125Z,84.80
2022-12-17T02:05:09.426Z,80.60
2022-12-17T02:08:16.242Z,90.60
2022-12-17T02:11:08.542Z,87.10
2022-12-17T02:14:04.303Z,91.40
2022-12-17T02:16:58.068Z,82.60
2022-12-17T02:20:00.642Z,81.20
2022-12-17T02:22:57.229Z,68.00
2022-12-17T02:26:01.483Z,74.80
2022-12-17T02:28:49.070Z,72.10
2022-12-17T02:31:36.993Z,77.40
2022-12-17T02:34:23.713Z,73.10
2022-12-17T02:39:58.764Z,62.80
2022-12-17T02:42:47.732Z,77.90
2022-12-17T02:45:36.028Z,75.90
2022-12-17T02:48:24.990Z,70.60
2022-12-17T02:51:12.194Z,73.20
2022-12-17T02:54:04.640Z,68.00
2022-12-17T02:56:53.315Z,72.60
2022-12-17T02:59:40.290Z,60.50
2022-12-17T03:02:32.505Z,70.00
2022-12-17T03:05:43.856Z,66.90
2022-12-17T03:08:31.830Z,73.60
2022-12-17T03:11:18.898Z,68.80
2022-12-17T03:14:05.484Z,66.30
2022-12-17T03:19:39.609Z,62.90
2022-12-17T03:22:26.576Z,72.80
2022-12-17T03:25:13.317Z,72.30
2022-12-17T03:28:02.285Z,66.40
2022-12-17T03:30:49.508Z,72.80
2022-12-17T03:33:36.855Z,69.10
2022-12-17T03:36:23.988Z,64.00
2022-12-17T03:39:10.858Z,73.40
2022-12-17T03:41:57.621Z,67.50
2022-12-17T03:44:44.348Z,58.80
2022-12-17T03:50:17.971Z,62.90
2022-12-17T03:53:04.754Z,61.90
2022-12-17T03:55:52.171Z,69.30
2022-12-17T03:58:39.140Z,65.90
2022-12-17T04:01:25.969Z,63.90
2022-12-17T04:04:13.016Z,73.40
2022-12-17T04:07:00.436Z,71.70
2022-12-17T04:09:47.254Z,55.60
2022-12-17T04:12:33.869Z,77.70
2022-12-17T04:18:08.202Z,72.00
2022-12-17T04:20:55.077Z,79.70
2022-12-17T04:23:42.580Z,69.20
2022-12-17T04:26:29.955Z,74.30
2022-12-17T04:29:16.775Z,82.60
2022-12-17T04:32:17.259Z,74.50
2022-12-17T04:35:04.095Z,81.10
2022-12-17T04:37:50.899Z,77.40
2022-12-17T04:40:40.887Z,81.50
2022-12-17T04:43:42.246Z,78.80
2022-12-17T04:46:29.359Z,79.80
2022-12-17T04:49:16.125Z,68.40
2022-12-17T04:54:49.705Z,84.00
2022-12-17T04:57:36.633Z,75.00
2022-12-17T05:00:23.801Z,80.90
2022-12-17T05:03:11.001Z,86.70
2022-12-17T05:05:58.342Z,83.90
2022-12-17T05:08:45.205Z,76.90
2022-12-17T05:11:31.904Z,78.10
2022-12-17T05:17:16.269Z,63.60
2022-12-17T05:20:03.433Z,83.10
2022-12-17T05:22:50.651Z,75.20
2022-12-17T05:25:57.420Z,75.90
2022-12-17T05:28:44.136Z,67.10
2022-12-17T05:31:31.198Z,76.60
2022-12-17T05:34:18.328Z,75.90
2022-12-17T05:37:05.591Z,74.50
2022-12-17T05:42:39.121Z,68.30
2022-12-17T05:48:16.978Z,80.20
2022-12-17T05:51:10.644Z,78.60
2022-12-17T05:53:57.400Z,72.10
2022-12-17T05:56:44.441Z,71.70
2022-12-17T05:59:31.542Z,72.30
2022-12-17T06:02:18.536Z,76.40
2022-12-17T06:05:05.317Z,72.30
2022-12-17T06:07:52.064Z,84.60
2022-12-17T06:10:52.355Z,76.60
2022-12-17T06:13:39.365Z,80.20
2022-12-17T06:16:26.546Z,73.90
2022-12-17T06:19:13.714Z,79.10
2022-12-17T06:22:00.528Z,69.00
2022-12-17T06:24:47.577Z,75.60
2022-12-17T06:27:34.529Z,69.80
2022-12-17T06:30:21.564Z,70.60
2022-12-17T06:33:08.693Z,77.40
2022-12-17T06:35:55.853Z,81.30
2022-12-17T06:38:42.640Z,75.00
2022-12-17T06:41:29.770Z,75.00
2022-12-17T06:44:16.765Z,76.40
2022-12-17T06:47:03.866Z,71.90
2022-12-17T06:49:50.857Z,64.10
2022-12-17T06:52:37.913Z,72.60
2022-12-17T06:55:25.246Z,75.50
2022-12-17T06:58:16.500Z,59.00
2022-12-17T07:01:03.994Z,63.70
2022-12-17T07:03:51.005Z,72.40
2022-12-17T07:06:37.698Z,58.00
2022-12-17T07:09:24.628Z,65.00
2022-12-17T07:12:15.922Z,65.00
2022-12-17T07:15:02.912Z,70.90
2022-12-17T07:17:49.786Z,72.90
2022-12-17T07:20:36.703Z,70.50
2022-12-17T07:23:23.736Z,75.40
2022-12-17T07:28:57.216Z,86.80
2022-12-17T07:31:44.012Z,74.60
2022-12-17T07:34:32.410Z,82.50
2022-12-17T07:37:20.777Z,85.50
2022-12-17T07:40:07.665Z,78.30
2022-12-17T07:42:54.292Z,66.00
2022-12-17T07:48:28.147Z,81.70
2022-12-17T07:51:14.933Z,73.30
2022-12-17T07:56:48.359Z,82.00
2022-12-17T07:59:34.984Z,91.10
2022-12-17T08:02:22.039Z,85.50
2022-12-17T08:05:08.963Z,82.90
2022-12-17T08:07:55.822Z,82.70
2022-12-17T08:10:44.516Z,74.20
2022-12-17T08:13:31.332Z,84.80
2022-12-17T08:19:04.400Z,85.90
2022-12-17T08:21:51.888Z,90.60
2022-12-17T08:24:39.446Z,97.10
2022-12-17T08:27:26.336Z,87.60
2022-12-17T08:30:13.209Z,92.10
2022-12-17T08:33:00.187Z,87.50
2022-12-17T08:35:47.001Z,112.60
2022-12-17T08:38:33.935Z,95.30
2022-12-17T08:41:20.819Z,106.20
2022-12-17T08:44:07.532Z,98.70
2022-12-17T08:49:41.501Z,94.20
2022-12-17T08:52:28.435Z,101.20
2022-12-17T08:55:15.375Z,98.30
2022-12-17T08:58:14.908Z,87.90
2022-12-17T09:01:02.761Z,108.70
2022-12-17T09:03:49.951Z,112.70
2022-12-17T09:06:39.253Z,116.70
2022-12-17T09:09:26.761Z,108.90
2022-12-17T09:12:13.677Z,115.60
2022-12-17T09:15:00.401Z,107.50
2022-12-17T09:17:50.076Z,116.70
2022-12-17T09:20:36.986Z,119.30
2022-12-17T09:23:23.805Z,113.90
2022-12-17T09:26:14.922Z,103.90
2022-12-17T09:29:01.760Z,108.00
2022-12-17T09:31:50.829Z,103.60
2022-12-17T09:34:38.187Z,112.60
2022-12-17T09:37:25.941Z,110.90
2022-12-17T09:40:12.772Z,105.60
2022-12-17T09:43:02.505Z,120.20
2022-12-17T09:46:02.673Z,104.80
2022-12-17T09:49:20.707Z,110.70
2022-12-17T09:52:07.306Z,105.30
2022-12-17T09:57:54.756Z,115.30
2022-12-17T10:00:47.259Z,116.10
2022-12-17T10:03:37.849Z,105.80
2022-12-17T10:06:36.654Z,99.50
2022-12-17T10:09:37.970Z,96.10
2022-12-17T10:12:43.086Z,98.50
2022-12-17T10:15:33.541Z,104.90
2022-12-17T10:18:25.644Z,107.80
2022-12-17T10:21:21.589Z,107.10
2022-12-17T10:24:28.152Z,86.30
2022-12-17T10:27:15.624Z,111.30
2022-12-17T10:30:03.388Z,101.20
2022-12-17T10:32:50.267Z,106.90
2022-12-17T10:35:44.666Z,109.10
2022-12-17T10:38:43.094Z,116.40
2022-12-17T10:41:53.854Z,98.60
2022-12-17T10:44:49.986Z,106.50
2022-12-17T10:47:39.189Z,105.00
2022-12-17T10:50:41.188Z,96.30
2022-12-17T10:53:38.563Z,113.80
2022-12-17T10:56:26.181Z,96.00
2022-12-17T10:59:13.872Z,111.30
2022-12-17T11:02:01.741Z,109.80
2022-12-17T11:04:48.733Z,117.50
2022-12-17T11:07:58.701Z,103.60
2022-12-17T11:10:49.694Z,97.60
2022-12-17T11:14:01.398Z,108.40
2022-12-17T11:16:53.516Z,92.20
2022-12-17T11:19:52.852Z,101.40
2022-12-17T11:23:01.741Z,103.10
2022-12-17T11:26:15.026Z,104.00
2022-12-17T11:29:02.066Z,99.50
2022-12-17T11:32:14.474Z,100.40
2022-12-17T11:35:52.454Z,97.90
2022-12-17T11:38:51.856Z,99.90
2022-12-17T11:42:40.491Z,110.90
2022-12-17T11:45:58.329Z,96.60
2022-12-17T11:48:58.864Z,113.10
2022-12-17T11:52:10.587Z,112.30
2022-12-17T11:55:19.121Z,118.40
2022-12-17T11:58:36.104Z,108.90
2022-12-17T12:01:49.735Z,121.40
2022-12-17T12:04:44.456Z,112.70
2022-12-17T12:07:54.539Z,119.10
2022-12-17T12:10:55.447Z,117.80
2022-12-17T12:14:09.103Z,113.80
2022-12-17T12:17:25.131Z,115.50
2022-12-17T12:20:31.369Z,127.70
2022-12-17T12:23:59.671Z,126.00
2022-12-17T12:26:59.347Z,114.50
2022-12-17T12:30:12.461Z,113.70
2022-12-17T12:33:08.412Z,122.80
2022-12-17T12:35:58.395Z,136.00
2022-12-17T12:38:54.481Z,121.10
2022-12-17T12:41:56.527Z,135.40
2022-12-17T12:45:00.234Z,97.80
2022-12-17T12:48:10.998Z,122.00
2022-12-17T12:51:08.489Z,125.80
2022-12-17T12:54:12.079Z,117.00
2022-12-17T12:56:59.037Z,109.40
2022-12-17T12:59:51.868Z,118.30
2022-12-17T13:02:48.445Z,122.30
2022-12-17T13:05:34.934Z,132.50
2022-12-17T13:08:09.239Z,137.70
2022-12-17T13:10:37.791Z,122.40
2022-12-17T13:13:37.237Z,133.00
2022-12-17T13:16:25.336Z,126.00
2022-12-17T13:19:02.486Z,142.80
2022-12-17T13:21:31.894Z,141.00
2022-12-17T13:24:11.388Z,119.70
2022-12-17T13:26:39.462Z,139.40
2022-12-17T13:29:13.157Z,113.80
2022-12-17T13:31:54.001Z,111.90
2022-12-17T13:34:26.109Z,135.10
2022-12-17T13:37:07.808Z,119.60
2022-12-17T13:40:13.269Z,109.30
2022-12-17T13:42:45.914Z,111.50
2022-12-17T13:45:21.838Z,109.20
2022-12-17T13:47:58.959Z,111.60
2022-12-17T13:50:34.874Z,114.70
2022-12-17T13:53:12.648Z,114.20
2022-12-17T13:55:46.791Z,114.30
2022-12-17T13:58:30.662Z,119.10
2022-12-17T14:01:11.069Z,109.00
2022-12-17T14:06:35.732Z,126.30
2022-12-17T14:11:52.358Z,124.60
2022-12-17T14:14:33.725Z,123.60
2022-12-17T14:17:02.683Z,127.00
2022-12-17T14:19:33.026Z,131.90
2022-12-17T14:22:01.604Z,121.00
2022-12-17T14:24:30.361Z,101.80
2022-12-17T14:27:00.587Z,130.70
2022-12-17T14:29:30.889Z,128.70
2022-12-17T14:32:02.792Z,131.40
2022-12-17T14:34:42.227Z,113.90
2022-12-17T14:37:20.083Z,131.80
2022-12-17T14:39:49.270Z,133.20
2022-12-17T14:42:29.852Z,136.40
2022-12-17T14:45:13.124Z,129.10
2022-12-17T14:47:53.461Z,137.10
2022-12-17T14:50:21.943Z,125.80
2022-12-17T14:52:57.584Z,143.20
2022-12-17T14:55:36.886Z,142.40
2022-12-17T14:58:13.969Z,129.60
2022-12-17T15:01:12.543Z,138.90
2022-12-17T15:03:46.766Z,137.10
2022-12-17T15:06:18.860Z,141.10
2022-12-17T15:08:49.334Z,148.00
2022-12-17T15:11:20.691Z,143.20
2022-12-17T15:13:52.961Z,151.30
2022-12-17T15:16:24.504Z,143.60
2022-12-17T15:18:55.856Z,144.20
2022-12-17T15:21:25.478Z,147.90
2022-12-17T15:23:53.540Z,130.20
2022-12-17T15:26:21.913Z,140.10
2022-12-17T15:28:50.051Z,155.00
2022-12-17T15:31:23.178Z,137.80
2022-12-17T15:33:53.201Z,142.00
2022-12-17T15:36:21.312Z,136.10
2022-12-17T15:38:49.362Z,139.80
2022-12-17T15:41:36.523Z,131.90
2022-12-17T15:44:04.806Z,158.30
2022-12-17T15:46:33.128Z,134.30
2022-12-17T15:49:01.387Z,131.20
2022-12-17T15:51:29.767Z,143.70
2022-12-17T15:53:58.089Z,126.20
2022-12-17T15:56:28.207Z,130.70
2022-12-17T15:58:59.832Z,130.70
2022-12-17T16:01:28.494Z,132.90
2022-12-17T16:03:57.942Z,123.00
2022-12-17T16:06:26.440Z,132.00
2022-12-17T16:08:54.534Z,121.10
2022-12-17T16:11:22.688Z,140.40
2022-12-17T16:13:54.880Z,134.30
2022-12-17T16:16:23.958Z,135.20
2022-12-17T16:18:52.794Z,126.30
2022-12-17T16:21:20.951Z,123.00
2022-12-17T16:23:49.148Z,137.30
2022-12-17T16:26:17.627Z,135.50
2022-12-17T16:28:46.153Z,129.70
2022-12-17T16:31:16.160Z,136.90
2022-12-17T16:33:47.532Z,140.60
2022-12-17T16:36:19.876Z,135.10
2022-12-17T16:38:50.576Z,137.60
2022-12-17T16:41:20.424Z,139.20
2022-12-17T16:43:49.110Z,122.40
2022-12-17T16:46:28.071Z,129.70
2022-12-17T16:48:58.348Z,144.20
2022-12-17T16:51:29.499Z,139.40
2022-12-17T16:53:59.271Z,142.60
2022-12-17T16:56:28.520Z,138.60
2022-12-17T16:58:56.976Z,140.70
2022-12-17T17:01:28.120Z,136.70
2022-12-17T17:03:57.291Z,137.20
2022-12-17T17:06:30.251Z,147.20
2022-12-17T17:09:04.799Z,152.70
2022-12-17T17:11:33.236Z,155.90
2022-12-17T17:14:02.043Z,159.80
2022-12-17T17:16:31.417Z,158.40
2022-12-17T17:19:00.227Z,144.30
2022-12-17T17:21:30.013Z,156.20
2022-12-17T17:24:16.797Z,163.20
2022-12-17T17:26:49.565Z,153.70
2022-12-17T17:29:18.236Z,168.10
2022-12-17T17:34:35.764Z,151.50
2022-12-17T17:37:03.895Z,150.50
2022-12-17T17:39:34.326Z,132.30
2022-12-17T17:42:03.111Z,139.90
2022-12-17T17:44:31.263Z,151.10
2022-12-17T17:47:00.201Z,162.70
2022-12-17T17:49:29.007Z,155.50
2022-12-17T17:52:09.387Z,173.20
2022-12-17T17:54:39.941Z,176.30
2022-12-17T17:57:09.543Z,177.20
2022-12-17T17:59:39.769Z,195.60
2022-12-17T18:02:10.789Z,177.90
2022-12-17T18:04:40.241Z,171.20
2022-12-17T18:07:24.664Z,174.80
2022-12-17T18:09:59.957Z,185.00
2022-12-17T18:12:46.643Z,180.80
2022-12-17T18:17:50.941Z,190.40
2022-12-17T18:20:19.938Z,189.30
2022-12-17T18:22:48.192Z,187.20
2022-12-17T18:25:18.569Z,194.30
2022-12-17T18:27:46.820Z,187.40
2022-12-17T18:30:16.678Z,182.40
2022-12-17T18:32:45.518Z,190.20
2022-12-17T18:35:13.604Z,178.00
2022-12-17T18:37:41.762Z,183.80
2022-12-17T18:40:10.328Z,179.50
2022-12-17T18:42:57.095Z,182.40
2022-12-17T18:45:25.355Z,190.30
2022-12-17T18:47:53.509Z,189.20
2022-12-17T18:50:21.690Z,178.40
2022-12-17T18:52:50.017Z,174.30
2022-12-17T18:55:18.238Z,169.40
2022-12-17T18:57:46.340Z,169.10
2022-12-17T19:00:15.030Z,170.30
2022-12-17T19:02:44.437Z,161.40
2022-12-17T19:05:12.985Z,156.80
2022-12-17T19:07:41.113Z,168.60
2022-12-17T19:10:09.933Z,151.60
2022-12-17T19:12:38.105Z,162.60
2022-12-17T19:15:06.912Z,163.20
2022-12-17T19:17:37.160Z,153.90
2022-12-17T19:20:06.332Z,166.00
2022-12-17T19:22:34.713Z,167.90
2022-12-17T19:25:04.368Z,175.60
2022-12-17T19:27:32.625Z,134.90
2022-12-17T19:30:07.078Z,173.00
2022-12-17T19:32:35.601Z,175.50
2022-12-17T19:35:04.090Z,175.90
2022-12-17T19:37:32.225Z,165.90
2022-12-17T19:40:00.410Z,167.40
2022-12-17T19:42:36.799Z,181.70
2022-12-17T19:45:06.055Z,161.00
2022-12-17T19:47:34.233Z,152.00
2022-12-17T19:50:02.653Z,158.60
2022-12-17T19:52:30.705Z,142.80
2022-12-17T19:54:59.072Z,143.30
2022-12-17T19:57:27.468Z,144.60
2022-12-17T19:59:55.730Z,138.10
2022-12-17T20:02:28.316Z,115.70
2022-12-17T20:04:59.464Z,126.90
2022-12-17T20:07:27.600Z,142.20
2022-12-17T20:09:55.873Z,144.10
2022-12-17T20:12:24.720Z,137.80
2022-12-17T20:14:53.315Z,131.60
2022-12-17T20:17:22.072Z,125.20
2022-12-17T20:19:53.558Z,128.20
2022-12-17T20:22:23.343Z,134.80
2022-12-17T20:24:53.285Z,132.40
2022-12-17T20:27:21.548Z,134.50
2022-12-17T20:29:49.781Z,130.60
2022-12-17T20:32:20.145Z,142.00
2022-12-17T20:34:48.426Z,137.00
2022-12-17T20:37:16.571Z,125.60
2022-12-17T20:39:45.215Z,117.60
2022-12-17T20:42:13.426Z,123.10
2022-12-17T20:44:41.768Z,127.80
2022-12-17T20:47:10.135Z,126.10
2022-12-17T20:49:38.713Z,112.20
2022-12-17T20:52:06.881Z,122.00
2022-12-17T20:54:35.211Z,122.30
2022-12-17T20:57:03.405Z,113.00
2022-12-17T20:59:32.085Z,118.00
2022-12-17T21:02:00.331Z,130.70
2022-12-17T21:04:28.563Z,125.00
2022-12-17T21:06:57.557Z,120.20
2022-12-17T21:09:26.021Z,111.20
2022-12-17T21:11:54.187Z,128.10
2022-12-17T21:14:22.448Z,119.60
2022-12-17T21:16:50.582Z,117.80
2022-12-17T21:19:20.168Z,113.80
2022-12-17T21:21:48.722Z,119.40
2022-12-17T21:24:16.836Z,117.70
2022-12-17T21:26:47.342Z,114.80
2022-12-17T21:29:17.071Z,118.70
2022-12-17T21:31:50.203Z,113.90
2022-12-17T21:34:25.598Z,119.70
2022-12-17T21:36:53.785Z,109.00
2022-12-17T21:39:21.899Z,102.90
2022-12-17T21:42:08.851Z,107.20
2022-12-17T21:44:37.211Z,99.40
2022-12-17T21:47:05.582Z,95.70
2022-12-17T21:49:33.892Z,109.50
2022-12-17T21:52:03.582Z,103.00
2022-12-17T21:54:31.811Z,113.90
2022-12-17T21:56:59.953Z,111.20
2022-12-17T21:59:28.114Z,107.40
2022-12-17T22:01:57.616Z,112.00
2022-12-17T22:04:26.542Z,96.20
2022-12-17T22:07:02.127Z,110.00
2022-12-17T22:09:46.337Z,96.00
2022-12-17T22:12:40.395Z,105.20
2022-12-17T22:15:11.241Z,105.80
2022-12-17T22:17:42.394Z,106.80
2022-12-17T22:20:11.685Z,105.10
2022-12-17T22:22:39.862Z,107.10
2022-12-17T22:25:10.399Z,94.90
2022-12-17T22:27:40.446Z,100.10
2022-12-17T22:30:33.611Z,95.00
2022-12-17T22:33:06.036Z,90.20
2022-12-17T22:37:30.518Z,83.20
2022-12-17T22:42:26.389Z,85.20
2022-12-17T22:44:41.584Z,83.80
2022-12-17T22:44:44.909Z,80.60
2022-12-17T22:47:14.664Z,81.40
2022-12-17T22:49:44.334Z,86.10
2022-12-17T22:52:13.535Z,88.70
2022-12-17T22:54:44.268Z,82.30
2022-12-17T22:57:35.430Z,79.30
2022-12-17T23:00:01.025Z,79.00
2022-12-17T23:02:29.251Z,77.40
2022-12-17T23:04:57.516Z,79.60
2022-12-17T23:07:31.550Z,77.90
2022-12-17T23:10:00.261Z,88.50
2022-12-17T23:12:47.204Z,75.80
2022-12-17T23:15:15.383Z,79.50
2022-12-17T23:17:43.836Z,76.50
2022-12-17T23:20:12.730Z,73.70
2022-12-17T23:22:40.982Z,70.80
2022-12-17T23:25:10.330Z,79.90
2022-12-17T23:27:38.975Z,68.10
2022-12-17T23:30:08.208Z,73.20
2022-12-17T23:32:37.672Z,72.80
2022-12-17T23:35:06.956Z,66.00
2022-12-17T23:37:39.749Z,70.40
2022-12-17T23:40:10.411Z,73.30
2022-12-17T23:42:38.758Z,70.60
2022-12-17T23:45:08.316Z,59.30
2022-12-17T23:47:36.442Z,64.90
2022-12-17T23:50:06.241Z,61.00
2022-12-17T23:52:34.365Z,65.00
2022-12-17T23:55:02.504Z,64.90
2022-12-17T23:57:30.599Z,55.80
2022-12-17T23:59:58.664Z,59.40
